sensor_id;sensor_type;location;lat;lon;timestamp;pressure;altitude;pressure_sealevel;temperature;humidity
9709;BME280;4893;42.024;23.098;2022-08-18T00:01:08;96724.75;;;20.25;100.00
9709;BME280;4893;42.024;23.098;2022-08-18T00:03:35;96710.81;;;19.96;100.00
9709;BME280;4893;42.024;23.098;2022-08-18T00:06:01;96714.81;;;19.99;100.00
9709;BME280;4893;42.024;23.098;2022-08-18T00:08:26;96709.63;;;20.04;100.00
9709;BME280;4893;42.024;23.098;2022-08-18T00:10:54;96712.97;;;19.99;100.00
9709;BME280;4893;42.024;23.098;2022-08-18T00:13:20;96705.06;;;19.99;100.00
9709;BME280;4893;42.024;23.098;2022-08-18T00:16:04;96707.78;;;20.04;100.00
9709;BME280;4893;42.024;23.098;2022-08-18T00:18:29;96708.44;;;19.95;100.00
9709;BME280;4893;42.024;23.098;2022-08-18T00:20:55;96708.28;;;20.01;100.00
9709;BME280;4893;42.024;23.098;2022-08-18T00:23:20;96700.59;;;20.00;100.00
9709;BME280;4893;42.024;23.098;2022-08-18T00:25:46;96687.00;;;19.91;100.00
9709;BME280;4893;42.024;23.098;2022-08-18T00:28:14;96697.97;;;20.00;100.00
9709;BME280;4893;42.024;23.098;2022-08-18T00:30:40;96711.72;;;20.02;100.00
9709;BME280;4893;42.024;23.098;2022-08-18T00:33:05;96710.34;;;19.99;100.00
9709;BME280;4893;42.024;23.098;2022-08-18T00:35:36;96699.94;;;19.93;100.00
9709;BME280;4893;42.024;23.098;2022-08-18T00:38:04;96702.34;;;19.94;100.00
9709;BME280;4893;42.024;23.098;2022-08-18T00:40:39;96702.50;;;19.88;100.00
9709;BME280;4893;42.024;23.098;2022-08-18T00:43:10;96708.22;;;19.68;100.00
9709;BME280;4893;42.024;23.098;2022-08-18T00:45:38;96717.03;;;19.74;100.00
9709;BME280;4893;42.024;23.098;2022-08-18T00:48:06;96714.31;;;19.69;100.00
9709;BME280;4893;42.024;23.098;2022-08-18T00:50:36;96698.16;;;19.65;100.00
9709;BME280;4893;42.024;23.098;2022-08-18T00:53:10;96715.59;;;19.66;100.00
9709;BME280;4893;42.024;23.098;2022-08-18T00:55:39;96718.47;;;19.65;100.00
9709;BME280;4893;42.024;23.098;2022-08-18T00:58:13;96718.81;;;19.57;100.00
9709;BME280;4893;42.024;23.098;2022-08-18T01:00:41;96672.09;;;19.24;100.00
9709;BME280;4893;42.024;23.098;2022-08-18T01:03:11;96715.44;;;19.45;100.00
9709;BME280;4893;42.024;23.098;2022-08-18T01:05:47;96716.34;;;19.50;100.00
9709;BME280;4893;42.024;23.098;2022-08-18T01:08:16;96715.53;;;19.50;100.00
9709;BME280;4893;42.024;23.098;2022-08-18T01:10:42;96711.88;;;19.51;100.00
9709;BME280;4893;42.024;23.098;2022-08-18T01:13:09;96704.25;;;19.38;100.00
9709;BME280;4893;42.024;23.098;2022-08-18T01:15:35;96714.06;;;19.42;100.00
9709;BME280;4893;42.024;23.098;2022-08-18T01:18:05;96717.88;;;19.35;100.00
9709;BME280;4893;42.024;23.098;2022-08-18T01:20:59;96715.97;;;19.30;100.00
9709;BME280;4893;42.024;23.098;2022-08-18T01:23:48;96722.44;;;19.27;100.00
9709;BME280;4893;42.024;23.098;2022-08-18T01:26:17;96715.81;;;19.25;100.00
9709;BME280;4893;42.024;23.098;2022-08-18T01:28:44;96714.41;;;19.06;100.00
9709;BME280;4893;42.024;23.098;2022-08-18T01:31:12;96709.00;;;19.12;100.00
9709;BME280;4893;42.024;23.098;2022-08-18T01:33:52;96705.47;;;19.07;100.00
9709;BME280;4893;42.024;23.098;2022-08-18T01:36:21;96702.38;;;18.98;100.00
9709;BME280;4893;42.024;23.098;2022-08-18T01:38:49;96711.44;;;19.02;100.00
9709;BME280;4893;42.024;23.098;2022-08-18T01:41:16;96712.72;;;18.88;100.00
9709;BME280;4893;42.024;23.098;2022-08-18T01:43:42;96707.00;;;18.91;100.00
9709;BME280;4893;42.024;23.098;2022-08-18T01:46:07;96696.69;;;18.90;100.00
9709;BME280;4893;42.024;23.098;2022-08-18T01:48:35;96696.38;;;18.86;100.00
9709;BME280;4893;42.024;23.098;2022-08-18T01:51:06;96699.47;;;18.83;100.00
9709;BME280;4893;42.024;23.098;2022-08-18T01:53:32;96694.31;;;18.77;100.00
9709;BME280;4893;42.024;23.098;2022-08-18T01:55:59;96705.50;;;18.84;100.00
9709;BME280;4893;42.024;23.098;2022-08-18T01:58:25;96707.59;;;18.70;100.00
9709;BME280;4893;42.024;23.098;2022-08-18T02:00:54;96708.84;;;18.79;100.00
9709;BME280;4893;42.024;23.098;2022-08-18T02:03:25;96708.25;;;18.77;100.00
9709;BME280;4893;42.024;23.098;2022-08-18T02:05:58;96698.19;;;18.74;100.00
9709;BME280;4893;42.024;23.098;2022-08-18T02:08:25;96705.75;;;18.71;100.00
9709;BME280;4893;42.024;23.098;2022-08-18T02:10:50;96694.22;;;18.60;100.00
9709;BME280;4893;42.024;23.098;2022-08-18T02:13:16;96698.09;;;18.58;100.00
9709;BME280;4893;42.024;23.098;2022-08-18T02:15:42;96716.63;;;18.63;100.00
9709;BME280;4893;42.024;23.098;2022-08-18T02:18:19;96703.94;;;18.48;100.00
9709;BME280;4893;42.024;23.098;2022-08-18T02:20:45;96723.63;;;18.57;100.00
9709;BME280;4893;42.024;23.098;2022-08-18T02:23:11;96718.94;;;18.48;100.00
9709;BME280;4893;42.024;23.098;2022-08-18T02:25:36;96728.66;;;18.47;100.00
9709;BME280;4893;42.024;23.098;2022-08-18T02:28:04;96733.44;;;18.39;100.00
9709;BME280;4893;42.024;23.098;2022-08-18T02:30:30;96705.63;;;18.31;100.00
9709;BME280;4893;42.024;23.098;2022-08-18T02:32:58;96720.88;;;18.41;100.00
9709;BME280;4893;42.024;23.098;2022-08-18T02:35:24;96717.88;;;18.37;100.00
9709;BME280;4893;42.024;23.098;2022-08-18T02:37:59;96717.28;;;18.35;100.00
9709;BME280;4893;42.024;23.098;2022-08-18T02:40:25;96711.72;;;18.32;100.00
9709;BME280;4893;42.024;23.098;2022-08-18T02:42:51;96718.09;;;18.36;100.00
9709;BME280;4893;42.024;23.098;2022-08-18T02:45:20;96726.19;;;18.23;100.00
9709;BME280;4893;42.024;23.098;2022-08-18T02:47:54;96699.22;;;18.16;100.00
9709;BME280;4893;42.024;23.098;2022-08-18T02:50:21;96716.16;;;18.31;100.00
9709;BME280;4893;42.024;23.098;2022-08-18T02:52:47;96719.59;;;18.20;100.00
9709;BME280;4893;42.024;23.098;2022-08-18T02:55:13;96723.56;;;18.23;100.00
9709;BME280;4893;42.024;23.098;2022-08-18T02:57:44;96728.34;;;18.14;100.00
9709;BME280;4893;42.024;23.098;2022-08-18T03:00:12;96726.88;;;18.18;100.00
9709;BME280;4893;42.024;23.098;2022-08-18T03:02:39;96718.19;;;18.18;100.00
9709;BME280;4893;42.024;23.098;2022-08-18T03:05:05;96715.66;;;18.11;100.00
9709;BME280;4893;42.024;23.098;2022-08-18T03:07:31;96720.81;;;18.06;100.00
9709;BME280;4893;42.024;23.098;2022-08-18T03:09:57;96720.16;;;18.11;100.00
9709;BME280;4893;42.024;23.098;2022-08-18T03:12:22;96719.78;;;18.07;100.00
9709;BME280;4893;42.024;23.098;2022-08-18T03:14:49;96714.09;;;18.10;100.00
9709;BME280;4893;42.024;23.098;2022-08-18T03:17:14;96715.31;;;18.08;100.00
9709;BME280;4893;42.024;23.098;2022-08-18T03:19:41;96719.78;;;18.07;100.00
9709;BME280;4893;42.024;23.098;2022-08-18T03:22:09;96714.41;;;18.02;100.00
9709;BME280;4893;42.024;23.098;2022-08-18T03:24:34;96725.09;;;17.77;100.00
9709;BME280;4893;42.024;23.098;2022-08-18T03:27:03;96722.03;;;17.92;100.00
9709;BME280;4893;42.024;23.098;2022-08-18T03:29:30;96727.75;;;17.89;100.00
9709;BME280;4893;42.024;23.098;2022-08-18T03:31:55;96725.69;;;17.79;100.00
9709;BME280;4893;42.024;23.098;2022-08-18T03:34:21;96734.47;;;17.85;100.00
9709;BME280;4893;42.024;23.098;2022-08-18T03:36:48;96733.91;;;17.83;100.00
9709;BME280;4893;42.024;23.098;2022-08-18T03:39:15;96737.88;;;17.74;100.00
9709;BME280;4893;42.024;23.098;2022-08-18T03:41:42;96733.19;;;17.76;100.00
9709;BME280;4893;42.024;23.098;2022-08-18T03:44:09;96744.75;;;17.75;100.00
9709;BME280;4893;42.024;23.098;2022-08-18T03:46:36;96741.22;;;17.81;100.00
9709;BME280;4893;42.024;23.098;2022-08-18T03:49:01;96731.38;;;17.76;100.00
9709;BME280;4893;42.024;23.098;2022-08-18T03:51:30;96742.81;;;17.82;100.00
9709;BME280;4893;42.024;23.098;2022-08-18T03:53:58;96744.44;;;17.83;100.00
9709;BME280;4893;42.024;23.098;2022-08-18T03:56:29;96754.81;;;17.78;100.00
9709;BME280;4893;42.024;23.098;2022-08-18T03:59:00;96742.13;;;17.75;100.00
9709;BME280;4893;42.024;23.098;2022-08-18T04:01:31;96756.53;;;17.84;100.00
9709;BME280;4893;42.024;23.098;2022-08-18T04:04:02;96757.09;;;17.86;100.00
9709;BME280;4893;42.024;23.098;2022-08-18T04:06:34;96752.31;;;17.83;100.00
9709;BME280;4893;42.024;23.098;2022-08-18T04:09:02;96763.59;;;17.83;100.00
9709;BME280;4893;42.024;23.098;2022-08-18T04:11:30;96762.00;;;17.82;100.00
9709;BME280;4893;42.024;23.098;2022-08-18T04:13:56;96761.41;;;17.80;100.00
9709;BME280;4893;42.024;23.098;2022-08-18T04:16:25;96763.38;;;17.85;100.00
9709;BME280;4893;42.024;23.098;2022-08-18T04:18:51;96770.34;;;17.79;100.00
9709;BME280;4893;42.024;23.098;2022-08-18T04:21:17;96760.41;;;17.93;100.00
9709;BME280;4893;42.024;23.098;2022-08-18T04:23:43;96763.38;;;17.85;100.00
9709;BME280;4893;42.024;23.098;2022-08-18T04:26:10;96761.84;;;18.07;100.00
9709;BME280;4893;42.024;23.098;2022-08-18T04:28:37;96772.09;;;17.97;100.00
9709;BME280;4893;42.024;23.098;2022-08-18T04:31:09;96797.03;;;18.06;100.00
9709;BME280;4893;42.024;23.098;2022-08-18T04:33:36;96781.75;;;18.15;100.00
9709;BME280;4893;42.024;23.098;2022-08-18T04:36:10;96784.28;;;18.21;100.00
9709;BME280;4893;42.024;23.098;2022-08-18T04:38:45;96781.31;;;18.29;100.00
9709;BME280;4893;42.024;23.098;2022-08-18T04:41:12;96780.84;;;18.32;100.00
9709;BME280;4893;42.024;23.098;2022-08-18T04:43:38;96773.53;;;18.34;100.00
9709;BME280;4893;42.024;23.098;2022-08-18T04:46:05;96769.81;;;18.42;100.00
9709;BME280;4893;42.024;23.098;2022-08-18T04:48:39;96771.19;;;18.44;100.00
9709;BME280;4893;42.024;23.098;2022-08-18T04:51:16;96779.88;;;18.56;100.00
9709;BME280;4893;42.024;23.098;2022-08-18T04:53:43;96780.81;;;18.73;100.00
9709;BME280;4893;42.024;23.098;2022-08-18T04:56:38;96773.69;;;19.08;100.00
9709;BME280;4893;42.024;23.098;2022-08-18T04:59:11;96783.16;;;22.39;100.00
9709;BME280;4893;42.024;23.098;2022-08-18T05:01:42;96797.19;;;25.70;100.00
9709;BME280;4893;42.024;23.098;2022-08-18T05:04:09;96813.47;;;28.08;85.52
9709;BME280;4893;42.024;23.098;2022-08-18T05:06:40;96799.63;;;29.66;73.27
9709;BME280;4893;42.024;23.098;2022-08-18T05:09:08;96818.19;;;31.45;58.12
9709;BME280;4893;42.024;23.098;2022-08-18T05:11:35;96826.97;;;32.66;55.52
9709;BME280;4893;42.024;23.098;2022-08-18T05:14:04;96837.72;;;32.92;52.08
9709;BME280;4893;42.024;23.098;2022-08-18T05:16:30;96830.69;;;33.62;47.91
9709;BME280;4893;42.024;23.098;2022-08-18T05:19:02;96827.81;;;34.26;48.31
9709;BME280;4893;42.024;23.098;2022-08-18T05:21:29;96835.69;;;33.35;47.10
9709;BME280;4893;42.024;23.098;2022-08-18T05:23:54;96836.94;;;34.13;48.25
9709;BME280;4893;42.024;23.098;2022-08-18T05:26:19;96833.97;;;34.55;43.63
9709;BME280;4893;42.024;23.098;2022-08-18T05:28:46;96837.00;;;33.29;45.17
9709;BME280;4893;42.024;23.098;2022-08-18T05:31:12;96843.16;;;33.38;48.64
9709;BME280;4893;42.024;23.098;2022-08-18T05:33:38;96834.22;;;33.92;53.56
9709;BME280;4893;42.024;23.098;2022-08-18T05:41:52;96827.38;;;32.08;54.23
9709;BME280;4893;42.024;23.098;2022-08-18T05:44:31;96841.06;;;30.32;52.36
9709;BME280;4893;42.024;23.098;2022-08-18T05:49:49;96846.56;;;30.27;57.53
9709;BME280;4893;42.024;23.098;2022-08-18T05:52:18;96850.69;;;29.11;58.87
9709;BME280;4893;42.024;23.098;2022-08-18T05:54:52;96854.53;;;31.20;58.28
9709;BME280;4893;42.024;23.098;2022-08-18T05:57:44;96857.13;;;32.03;70.25
9709;BME280;4893;42.024;23.098;2022-08-18T06:00:11;96864.00;;;33.12;58.53
9709;BME280;4893;42.024;23.098;2022-08-18T06:03:12;96856.22;;;29.60;56.36
9709;BME280;4893;42.024;23.098;2022-08-18T06:05:48;96858.81;;;27.18;75.33
9709;BME280;4893;42.024;23.098;2022-08-18T06:08:19;96844.38;;;28.70;72.61
9709;BME280;4893;42.024;23.098;2022-08-18T06:10:48;96849.41;;;31.10;69.67
9709;BME280;4893;42.024;23.098;2022-08-18T06:13:15;96849.56;;;29.84;65.00
9709;BME280;4893;42.024;23.098;2022-08-18T06:43:58;96850.81;;;30.77;55.42
9709;BME280;4893;42.024;23.098;2022-08-18T06:46:53;96841.66;;;31.61;60.24
9709;BME280;4893;42.024;23.098;2022-08-18T06:49:46;96828.66;;;32.11;61.00
9709;BME280;4893;42.024;23.098;2022-08-18T06:52:50;96833.78;;;33.82;66.65
9709;BME280;4893;42.024;23.098;2022-08-18T06:55:08;96835.75;;;32.07;53.03
9709;BME280;4893;42.024;23.098;2022-08-18T06:57:51;96838.59;;;32.02;55.29
9709;BME280;4893;42.024;23.098;2022-08-18T07:05:15;96833.19;;;31.46;53.06
9709;BME280;4893;42.024;23.098;2022-08-18T07:07:43;96830.75;;;32.65;50.74
9709;BME280;4893;42.024;23.098;2022-08-18T07:12:40;96822.03;;;34.56;48.91
9709;BME280;4893;42.024;23.098;2022-08-18T07:15:07;96819.31;;;32.08;49.27
9709;BME280;4893;42.024;23.098;2022-08-18T07:17:37;96817.66;;;31.34;53.22
9709;BME280;4893;42.024;23.098;2022-08-18T07:20:16;96810.50;;;33.39;59.80
9709;BME280;4893;42.024;23.098;2022-08-18T07:23:08;96810.66;;;34.51;50.43
9709;BME280;4893;42.024;23.098;2022-08-18T07:25:45;96806.88;;;32.47;50.88
9709;BME280;4893;42.024;23.098;2022-08-18T07:31:26;96801.44;;;33.82;54.22
9709;BME280;4893;42.024;23.098;2022-08-18T07:34:09;96792.09;;;33.04;59.30
9709;BME280;4893;42.024;23.098;2022-08-18T07:36:45;96796.56;;;34.45;66.80
9709;BME280;4893;42.024;23.098;2022-08-18T07:39:28;96801.03;;;34.62;59.77
9709;BME280;4893;42.024;23.098;2022-08-18T07:42:08;96791.25;;;33.58;51.35
9709;BME280;4893;42.024;23.098;2022-08-18T07:44:42;96798.88;;;34.55;46.81
9709;BME280;4893;42.024;23.098;2022-08-18T07:49:53;96791.78;;;34.83;43.50
9709;BME280;4893;42.024;23.098;2022-08-18T07:52:30;96789.97;;;31.25;50.28
9709;BME280;4893;42.024;23.098;2022-08-18T07:57:42;96792.88;;;34.29;46.29
9709;BME280;4893;42.024;23.098;2022-08-18T08:00:22;96789.28;;;32.06;48.65
9709;BME280;4893;42.024;23.098;2022-08-18T08:03:21;96788.97;;;33.31;49.75
9709;BME280;4893;42.024;23.098;2022-08-18T08:06:18;96782.19;;;32.53;47.73
9709;BME280;4893;42.024;23.098;2022-08-18T08:11:50;96767.25;;;33.36;48.54
9709;BME280;4893;42.024;23.098;2022-08-18T08:17:23;96776.19;;;34.68;43.94
9709;BME280;4893;42.024;23.098;2022-08-18T08:23:04;96769.91;;;35.09;42.24
9709;BME280;4893;42.024;23.098;2022-08-18T08:36:57;96757.69;;;33.09;47.53
9709;BME280;4893;42.024;23.098;2022-08-18T08:39:49;96752.38;;;34.17;56.73
9709;BME280;4893;42.024;23.098;2022-08-18T08:45:17;96751.56;;;33.38;51.28
9709;BME280;4893;42.024;23.098;2022-08-18T08:47:58;96737.03;;;33.59;57.28
9709;BME280;4893;42.024;23.098;2022-08-18T08:50:28;96731.66;;;34.09;51.83
9709;BME280;4893;42.024;23.098;2022-08-18T08:55:41;96730.66;;;35.24;49.26
9709;BME280;4893;42.024;23.098;2022-08-18T09:00:41;96720.50;;;34.97;52.17
9709;BME280;4893;42.024;23.098;2022-08-18T09:06:33;96714.44;;;35.48;52.01
9709;BME280;4893;42.024;23.098;2022-08-18T09:12:14;96708.22;;;35.23;45.70
9709;BME280;4893;42.024;23.098;2022-08-18T09:15:00;96692.59;;;35.17;45.41
9709;BME280;4893;42.024;23.098;2022-08-18T09:38:55;96648.22;;;34.81;44.39
9709;BME280;4893;42.024;23.098;2022-08-18T09:41:54;96637.53;;;34.85;44.35
9709;BME280;4893;42.024;23.098;2022-08-18T09:47:05;96639.44;;;35.57;43.46
9709;BME280;4893;42.024;23.098;2022-08-18T09:49:38;96643.66;;;35.06;42.39
9709;BME280;4893;42.024;23.098;2022-08-18T09:57:23;96635.97;;;34.39;42.19
9709;BME280;4893;42.024;23.098;2022-08-18T09:59:55;96624.03;;;34.28;42.25
9709;BME280;4893;42.024;23.098;2022-08-18T10:10:59;96616.31;;;33.24;49.26
9709;BME280;4893;42.024;23.098;2022-08-18T10:13:41;96585.91;;;32.65;54.21
9709;BME280;4893;42.024;23.098;2022-08-18T10:16:30;96624.75;;;32.93;49.59
9709;BME280;4893;42.024;23.098;2022-08-18T10:24:53;96611.06;;;32.69;52.13
9709;BME280;4893;42.024;23.098;2022-08-18T10:32:55;96591.16;;;31.39;57.87
9709;BME280;4893;42.024;23.098;2022-08-18T10:38:21;96582.31;;;31.72;58.88
9709;BME280;4893;42.024;23.098;2022-08-18T10:41:31;96587.53;;;31.77;64.29
9709;BME280;4893;42.024;23.098;2022-08-18T10:43:59;96575.66;;;31.95;61.71
9709;BME280;4893;42.024;23.098;2022-08-18T10:46:30;96575.16;;;32.19;56.04
9709;BME280;4893;42.024;23.098;2022-08-18T10:49:18;96586.63;;;32.36;55.87
9709;BME280;4893;42.024;23.098;2022-08-18T10:52:18;96576.38;;;32.21;55.94
9709;BME280;4893;42.024;23.098;2022-08-18T11:00:20;96576.38;;;32.30;51.25
9709;BME280;4893;42.024;23.098;2022-08-18T11:03:08;96568.97;;;32.18;51.99
9709;BME280;4893;42.024;23.098;2022-08-18T11:05:39;96559.63;;;32.24;50.23
9709;BME280;4893;42.024;23.098;2022-08-18T11:08:13;96565.28;;;32.40;51.49
9709;BME280;4893;42.024;23.098;2022-08-18T11:10:45;96550.88;;;32.36;54.06
9709;BME280;4893;42.024;23.098;2022-08-18T11:19:12;96561.44;;;32.50;52.11
9709;BME280;4893;42.024;23.098;2022-08-18T11:21:43;96566.75;;;32.20;50.89
9709;BME280;4893;42.024;23.098;2022-08-18T11:24:30;96557.28;;;32.14;47.41
9709;BME280;4893;42.024;23.098;2022-08-18T11:27:04;96564.00;;;32.37;56.62
9709;BME280;4893;42.024;23.098;2022-08-18T11:29:38;96552.63;;;32.32;47.89
9709;BME280;4893;42.024;23.098;2022-08-18T11:34:47;96543.75;;;32.49;47.99
9709;BME280;4893;42.024;23.098;2022-08-18T11:37:36;96551.84;;;32.69;48.18
9709;BME280;4893;42.024;23.098;2022-08-18T11:45:46;96541.59;;;32.63;50.74
9709;BME280;4893;42.024;23.098;2022-08-18T11:58:59;96530.00;;;32.33;47.73
9709;BME280;4893;42.024;23.098;2022-08-18T12:04:20;96513.63;;;32.17;46.99
9709;BME280;4893;42.024;23.098;2022-08-18T12:09:26;96513.97;;;32.54;43.14
9709;BME280;4893;42.024;23.098;2022-08-18T12:11:56;96513.88;;;32.42;53.77
9709;BME280;4893;42.024;23.098;2022-08-18T12:14:27;96510.53;;;32.36;47.95
9709;BME280;4893;42.024;23.098;2022-08-18T12:16:54;96490.59;;;32.37;51.68
9709;BME280;4893;42.024;23.098;2022-08-18T12:19:20;96502.81;;;32.64;44.62
9709;BME280;4893;42.024;23.098;2022-08-18T12:21:52;96502.13;;;32.75;45.47
9709;BME280;4893;42.024;23.098;2022-08-18T12:24:21;96502.06;;;32.84;46.35
9709;BME280;4893;42.024;23.098;2022-08-18T12:26:48;96497.63;;;32.88;45.27
9709;BME280;4893;42.024;23.098;2022-08-18T12:29:15;96509.13;;;33.17;44.14
9709;BME280;4893;42.024;23.098;2022-08-18T12:31:43;96499.28;;;33.21;45.30
9709;BME280;4893;42.024;23.098;2022-08-18T12:34:08;96501.25;;;33.33;44.81
9709;BME280;4893;42.024;23.098;2022-08-18T12:36:34;96506.22;;;33.43;45.89
9709;BME280;4893;42.024;23.098;2022-08-18T12:39:00;96501.03;;;33.38;44.11
9709;BME280;4893;42.024;23.098;2022-08-18T12:41:25;96499.22;;;33.30;43.59
9709;BME280;4893;42.024;23.098;2022-08-18T12:43:51;96484.66;;;33.63;40.17
9709;BME280;4893;42.024;23.098;2022-08-18T12:46:18;96494.28;;;33.52;41.42
9709;BME280;4893;42.024;23.098;2022-08-18T12:48:44;96493.50;;;33.64;43.85
9709;BME280;4893;42.024;23.098;2022-08-18T12:51:09;96490.81;;;33.64;42.04
9709;BME280;4893;42.024;23.098;2022-08-18T12:53:36;96495.78;;;33.74;42.18
9709;BME280;4893;42.024;23.098;2022-08-18T12:56:01;96494.00;;;33.78;42.77
9709;BME280;4893;42.024;23.098;2022-08-18T12:58:27;96490.50;;;33.65;42.38
9709;BME280;4893;42.024;23.098;2022-08-18T13:00:53;96481.75;;;33.68;40.56
9709;BME280;4893;42.024;23.098;2022-08-18T13:03:19;96489.63;;;33.74;41.40
9709;BME280;4893;42.024;23.098;2022-08-18T13:05:45;96468.81;;;33.62;42.38
9709;BME280;4893;42.024;23.098;2022-08-18T13:08:20;96481.00;;;33.80;40.59
9709;BME280;4893;42.024;23.098;2022-08-18T13:10:46;96479.41;;;33.79;41.79
9709;BME280;4893;42.024;23.098;2022-08-18T13:13:21;96476.66;;;33.55;42.31
9709;BME280;4893;42.024;23.098;2022-08-18T13:15:46;96469.25;;;33.52;41.06
9709;BME280;4893;42.024;23.098;2022-08-18T13:18:12;96468.50;;;33.63;48.96
9709;BME280;4893;42.024;23.098;2022-08-18T13:20:39;96462.72;;;33.53;42.49
9709;BME280;4893;42.024;23.098;2022-08-18T13:23:05;96466.56;;;33.64;41.41
9709;BME280;4893;42.024;23.098;2022-08-18T13:25:31;96463.09;;;33.63;39.73
9709;BME280;4893;42.024;23.098;2022-08-18T13:27:57;96461.09;;;33.72;41.09
9709;BME280;4893;42.024;23.098;2022-08-18T13:30:22;96457.59;;;33.60;40.69
9709;BME280;4893;42.024;23.098;2022-08-18T13:32:48;96455.56;;;33.69;40.29
9709;BME280;4893;42.024;23.098;2022-08-18T13:35:14;96458.50;;;33.76;40.78
9709;BME280;4893;42.024;23.098;2022-08-18T13:37:39;96454.25;;;33.75;40.18
9709;BME280;4893;42.024;23.098;2022-08-18T13:40:07;96443.00;;;33.85;40.85
9709;BME280;4893;42.024;23.098;2022-08-18T13:42:42;96443.47;;;33.75;42.09
9709;BME280;4893;42.024;23.098;2022-08-18T13:45:10;96435.56;;;33.58;41.14
9709;BME280;4893;42.024;23.098;2022-08-18T13:47:36;96457.03;;;33.66;39.23
9709;BME280;4893;42.024;23.098;2022-08-18T13:50:02;96452.75;;;33.53;39.43
9709;BME280;4893;42.024;23.098;2022-08-18T13:52:28;96456.31;;;33.57;42.06
9709;BME280;4893;42.024;23.098;2022-08-18T13:54:54;96449.72;;;33.55;40.66
9709;BME280;4893;42.024;23.098;2022-08-18T13:57:20;96443.31;;;33.47;39.37
9709;BME280;4893;42.024;23.098;2022-08-18T13:59:45;96454.44;;;33.58;38.12
9709;BME280;4893;42.024;23.098;2022-08-18T14:02:11;96438.75;;;33.39;38.82
9709;BME280;4893;42.024;23.098;2022-08-18T14:04:37;96441.72;;;33.46;39.68
9709;BME280;4893;42.024;23.098;2022-08-18T14:07:04;96433.63;;;33.46;39.56
9709;BME280;4893;42.024;23.098;2022-08-18T14:09:30;96429.28;;;33.54;39.54
9709;BME280;4893;42.024;23.098;2022-08-18T14:11:57;96440.06;;;33.66;39.50
9709;BME280;4893;42.024;23.098;2022-08-18T14:14:23;96444.34;;;33.67;39.73
9709;BME280;4893;42.024;23.098;2022-08-18T14:16:48;96436.91;;;33.64;39.17
9709;BME280;4893;42.024;23.098;2022-08-18T14:19:13;96430.31;;;33.61;39.60
9709;BME280;4893;42.024;23.098;2022-08-18T14:21:57;96422.75;;;33.55;39.83
9709;BME280;4893;42.024;23.098;2022-08-18T14:24:42;96426.69;;;33.57;37.77
9709;BME280;4893;42.024;23.098;2022-08-18T14:27:29;96427.47;;;33.58;38.24
9709;BME280;4893;42.024;23.098;2022-08-18T14:29:56;96421.28;;;33.45;40.31
9709;BME280;4893;42.024;23.098;2022-08-18T14:32:23;96433.97;;;33.45;38.53
9709;BME280;4893;42.024;23.098;2022-08-18T14:34:51;96419.59;;;33.41;38.41
9709;BME280;4893;42.024;23.098;2022-08-18T14:37:18;96420.38;;;33.41;42.32
9709;BME280;4893;42.024;23.098;2022-08-18T14:39:44;96415.28;;;33.40;37.84
9709;BME280;4893;42.024;23.098;2022-08-18T14:42:11;96427.72;;;33.32;37.97
9709;BME280;4893;42.024;23.098;2022-08-18T14:44:38;96423.66;;;33.26;38.98
9709;BME280;4893;42.024;23.098;2022-08-18T14:47:04;96427.38;;;33.34;37.98
9709;BME280;4893;42.024;23.098;2022-08-18T14:49:32;96426.72;;;33.37;38.46
9709;BME280;4893;42.024;23.098;2022-08-18T14:51:59;96425.16;;;33.36;38.46
9709;BME280;4893;42.024;23.098;2022-08-18T14:54:25;96421.75;;;33.27;38.45
9709;BME280;4893;42.024;23.098;2022-08-18T14:56:51;96434.19;;;33.19;38.81
9709;BME280;4893;42.024;23.098;2022-08-18T14:59:16;96422.63;;;33.19;39.02
9709;BME280;4893;42.024;23.098;2022-08-18T15:01:41;96408.34;;;33.06;40.01
9709;BME280;4893;42.024;23.098;2022-08-18T15:04:07;96425.09;;;33.12;38.43
9709;BME280;4893;42.024;23.098;2022-08-18T15:06:35;96419.91;;;33.07;39.60
9709;BME280;4893;42.024;23.098;2022-08-18T15:09:00;96423.25;;;33.04;38.00
9709;BME280;4893;42.024;23.098;2022-08-18T15:11:26;96433.34;;;33.07;38.19
9709;BME280;4893;42.024;23.098;2022-08-18T15:13:52;96418.84;;;32.99;38.69
9709;BME280;4893;42.024;23.098;2022-08-18T15:16:19;96418.13;;;32.90;40.23
9709;BME280;4893;42.024;23.098;2022-08-18T15:18:46;96420.16;;;32.93;38.17
9709;BME280;4893;42.024;23.098;2022-08-18T15:21:12;96426.59;;;33.01;39.48
9709;BME280;4893;42.024;23.098;2022-08-18T15:23:56;96425.94;;;33.04;40.09
9709;BME280;4893;42.024;23.098;2022-08-18T15:26:40;96417.41;;;32.81;38.01
9709;BME280;4893;42.024;23.098;2022-08-18T15:29:08;96430.06;;;32.81;39.04
9709;BME280;4893;42.024;23.098;2022-08-18T15:31:34;96431.28;;;32.83;40.25
9709;BME280;4893;42.024;23.098;2022-08-18T15:34:00;96423.59;;;32.73;42.00
9709;BME280;4893;42.024;23.098;2022-08-18T15:36:26;96426.56;;;32.60;39.28
9709;BME280;4893;42.024;23.098;2022-08-18T15:38:51;96436.53;;;32.59;39.08
9709;BME280;4893;42.024;23.098;2022-08-18T15:41:46;96433.78;;;32.47;39.65
9709;BME280;4893;42.024;23.098;2022-08-18T15:44:15;96433.28;;;32.54;38.91
9709;BME280;4893;42.024;23.098;2022-08-18T15:46:42;96426.16;;;32.49;41.10
9709;BME280;4893;42.024;23.098;2022-08-18T15:49:08;96424.78;;;32.43;38.54
9709;BME280;4893;42.024;23.098;2022-08-18T15:51:35;96421.94;;;32.39;40.82
9709;BME280;4893;42.024;23.098;2022-08-18T15:54:01;96423.88;;;32.30;42.19
9709;BME280;4893;42.024;23.098;2022-08-18T15:56:27;96423.94;;;32.22;41.21
9709;BME280;4893;42.024;23.098;2022-08-18T15:58:53;96421.56;;;32.20;40.06
9709;BME280;4893;42.024;23.098;2022-08-18T16:01:21;96419.59;;;32.00;52.56
9709;BME280;4893;42.024;23.098;2022-08-18T16:03:48;96416.66;;;31.93;42.85
9709;BME280;4893;42.024;23.098;2022-08-18T16:06:17;96432.94;;;31.88;43.16
9709;BME280;4893;42.024;23.098;2022-08-18T16:08:43;96432.78;;;31.93;41.06
9709;BME280;4893;42.024;23.098;2022-08-18T16:11:11;96419.50;;;31.88;39.78
9709;BME280;4893;42.024;23.098;2022-08-18T16:13:37;96429.63;;;31.91;42.49
9709;BME280;4893;42.024;23.098;2022-08-18T16:16:18;96422.84;;;31.85;45.72
9709;BME280;4893;42.024;23.098;2022-08-18T16:18:44;96427.41;;;31.76;44.02
9709;BME280;4893;42.024;23.098;2022-08-18T16:21:12;96429.84;;;31.69;46.93